sensor_id;sensor_type;location;lat;lon;timestamp;pressure;altitude;pressure_sealevel;temperature;humidity
20628;BME280;10473;42.734;24.258;2024-02-21T00:00:37;92738.94;;;3.60;78.69
20628;BME280;10473;42.734;24.258;2024-02-21T00:03:04;92745.63;;;3.61;77.63
20628;BME280;10473;42.734;24.258;2024-02-21T00:05:30;92734.28;;;3.64;76.60
20628;BME280;10473;42.734;24.258;2024-02-21T00:07:56;92735.13;;;3.64;78.05
20628;BME280;10473;42.734;24.258;2024-02-21T00:10:21;92729.03;;;3.21;78.42
20628;BME280;10473;42.734;24.258;2024-02-21T00:12:47;92734.81;;;3.23;78.53
20628;BME280;10473;42.734;24.258;2024-02-21T00:15:12;92731.06;;;3.36;79.48
20628;BME280;10473;42.734;24.258;2024-02-21T00:17:38;92731.91;;;3.62;77.59
20628;BME280;10473;42.734;24.258;2024-02-21T00:20:04;92727.78;;;3.69;76.94
20628;BME280;10473;42.734;24.258;2024-02-21T00:22:30;92724.94;;;3.73;76.82
20628;BME280;10473;42.734;24.258;2024-02-21T00:24:56;92725.94;;;3.80;77.11
20628;BME280;10473;42.734;24.258;2024-02-21T00:27:23;92730.28;;;3.61;77.76
20628;BME280;10473;42.734;24.258;2024-02-21T00:29:49;92729.16;;;3.56;77.89
20628;BME280;10473;42.734;24.258;2024-02-21T00:32:14;92723.78;;;3.49;79.11
20628;BME280;10473;42.734;24.258;2024-02-21T00:34:40;92727.19;;;3.49;80.22
20628;BME280;10473;42.734;24.258;2024-02-21T00:37:05;92732.50;;;3.38;79.95
20628;BME280;10473;42.734;24.258;2024-02-21T00:39:31;92726.25;;;3.33;79.47
20628;BME280;10473;42.734;24.258;2024-02-21T00:41:56;92730.31;;;3.43;78.11
20628;BME280;10473;42.734;24.258;2024-02-21T00:44:22;92723.53;;;3.52;77.64
20628;BME280;10473;42.734;24.258;2024-02-21T00:46:47;92727.09;;;3.41;79.90
20628;BME280;10473;42.734;24.258;2024-02-21T00:49:13;92720.31;;;3.50;78.67
20628;BME280;10473;42.734;24.258;2024-02-21T00:51:38;92719.66;;;3.48;79.15
20628;BME280;10473;42.734;24.258;2024-02-21T00:54:04;92715.75;;;3.62;78.72
20628;BME280;10473;42.734;24.258;2024-02-21T00:56:29;92711.84;;;3.76;78.51
20628;BME280;10473;42.734;24.258;2024-02-21T00:58:56;92713.63;;;3.57;79.57
20628;BME280;10473;42.734;24.258;2024-02-21T01:01:25;92713.19;;;3.62;77.94
20628;BME280;10473;42.734;24.258;2024-02-21T01:03:50;92708.91;;;3.44;79.03
20628;BME280;10473;42.734;24.258;2024-02-21T01:06:21;92711.34;;;3.72;77.54
20628;BME280;10473;42.734;24.258;2024-02-21T01:08:47;92713.69;;;3.65;78.10
20628;BME280;10473;42.734;24.258;2024-02-21T01:11:14;92716.38;;;3.38;79.88
20628;BME280;10473;42.734;24.258;2024-02-21T01:13:40;92708.16;;;3.08;80.22
20628;BME280;10473;42.734;24.258;2024-02-21T01:16:06;92702.44;;;2.96;81.38
20628;BME280;10473;42.734;24.258;2024-02-21T01:18:37;92706.22;;;2.74;82.95
20628;BME280;10473;42.734;24.258;2024-02-21T01:21:03;92709.00;;;2.63;82.90
20628;BME280;10473;42.734;24.258;2024-02-21T01:23:35;92713.63;;;2.95;82.39
20628;BME280;10473;42.734;24.258;2024-02-21T01:26:03;92704.13;;;2.87;81.96
20628;BME280;10473;42.734;24.258;2024-02-21T01:28:29;92699.88;;;2.78;82.85
20628;BME280;10473;42.734;24.258;2024-02-21T01:30:56;92701.47;;;2.79;83.74
20628;BME280;10473;42.734;24.258;2024-02-21T01:33:21;92698.13;;;2.79;83.60
20628;BME280;10473;42.734;24.258;2024-02-21T01:35:47;92692.56;;;2.65;84.55
20628;BME280;10473;42.734;24.258;2024-02-21T01:38:13;92691.56;;;2.58;84.88
20628;BME280;10473;42.734;24.258;2024-02-21T01:40:44;92695.13;;;2.65;84.15
20628;BME280;10473;42.734;24.258;2024-02-21T01:43:19;92694.16;;;2.66;83.79
20628;BME280;10473;42.734;24.258;2024-02-21T01:46:11;92696.03;;;2.19;86.72
20628;BME280;10473;42.734;24.258;2024-02-21T01:48:37;92684.53;;;2.15;87.96
20628;BME280;10473;42.734;24.258;2024-02-21T01:51:04;92689.09;;;2.11;87.68
20628;BME280;10473;42.734;24.258;2024-02-21T01:53:32;92688.78;;;2.24;87.90
20628;BME280;10473;42.734;24.258;2024-02-21T01:56:00;92692.44;;;2.21;87.33
20628;BME280;10473;42.734;24.258;2024-02-21T01:58:27;92690.34;;;2.35;86.61
20628;BME280;10473;42.734;24.258;2024-02-21T02:00:56;92686.56;;;2.39;85.65
20628;BME280;10473;42.734;24.258;2024-02-21T02:03:22;92690.53;;;2.23;87.37
20628;BME280;10473;42.734;24.258;2024-02-21T02:05:49;92684.59;;;2.23;87.02
20628;BME280;10473;42.734;24.258;2024-02-21T02:08:21;92693.88;;;2.24;87.64
20628;BME280;10473;42.734;24.258;2024-02-21T02:10:50;92683.56;;;2.43;86.95
20628;BME280;10473;42.734;24.258;2024-02-21T02:13:16;92678.59;;;2.42;85.89
20628;BME280;10473;42.734;24.258;2024-02-21T02:15:45;92674.94;;;2.44;86.48
20628;BME280;10473;42.734;24.258;2024-02-21T02:18:12;92680.84;;;2.45;86.24
20628;BME280;10473;42.734;24.258;2024-02-21T02:20:38;92673.66;;;2.58;85.63
20628;BME280;10473;42.734;24.258;2024-02-21T02:25:51;92684.59;;;2.51;86.07
20628;BME280;10473;42.734;24.258;2024-02-21T02:28:20;92682.56;;;2.26;87.16
20628;BME280;10473;42.734;24.258;2024-02-21T02:30:46;92680.97;;;2.25;87.36
20628;BME280;10473;42.734;24.258;2024-02-21T02:33:11;92689.56;;;1.97;88.32
20628;BME280;10473;42.734;24.258;2024-02-21T02:35:37;92685.34;;;2.05;89.03
20628;BME280;10473;42.734;24.258;2024-02-21T02:38:03;92681.22;;;2.04;87.49
20628;BME280;10473;42.734;24.258;2024-02-21T02:40:30;92683.19;;;2.11;87.71
20628;BME280;10473;42.734;24.258;2024-02-21T02:42:55;92683.00;;;2.22;86.98
20628;BME280;10473;42.734;24.258;2024-02-21T02:45:22;92679.03;;;2.10;88.27
20628;BME280;10473;42.734;24.258;2024-02-21T02:47:56;92680.47;;;2.22;87.36
20628;BME280;10473;42.734;24.258;2024-02-21T02:50:26;92681.63;;;2.28;86.53
20628;BME280;10473;42.734;24.258;2024-02-21T02:52:53;92681.41;;;1.93;88.36
20628;BME280;10473;42.734;24.258;2024-02-21T02:55:18;92672.50;;;1.97;88.51
20628;BME280;10473;42.734;24.258;2024-02-21T02:57:44;92670.88;;;2.06;88.60
20628;BME280;10473;42.734;24.258;2024-02-21T03:00:10;92681.25;;;2.22;87.34
20628;BME280;10473;42.734;24.258;2024-02-21T03:02:38;92676.47;;;2.10;88.36
20628;BME280;10473;42.734;24.258;2024-02-21T03:05:20;92673.78;;;2.11;88.19
20628;BME280;10473;42.734;24.258;2024-02-21T03:07:47;92676.50;;;2.28;87.67
20628;BME280;10473;42.734;24.258;2024-02-21T03:10:13;92680.16;;;2.25;87.71
20628;BME280;10473;42.734;24.258;2024-02-21T03:12:39;92666.91;;;2.21;87.64
20628;BME280;10473;42.734;24.258;2024-02-21T03:15:05;92681.50;;;2.29;87.51
20628;BME280;10473;42.734;24.258;2024-02-21T03:17:32;92675.75;;;2.45;86.79
20628;BME280;10473;42.734;24.258;2024-02-21T03:19:59;92679.91;;;2.46;86.37
20628;BME280;10473;42.734;24.258;2024-02-21T03:22:25;92681.09;;;2.52;86.59
20628;BME280;10473;42.734;24.258;2024-02-21T03:24:51;92685.66;;;2.30;87.35
20628;BME280;10473;42.734;24.258;2024-02-21T03:27:16;92684.56;;;2.33;87.20
20628;BME280;10473;42.734;24.258;2024-02-21T03:29:42;92683.69;;;2.42;86.43
20628;BME280;10473;42.734;24.258;2024-02-21T03:32:08;92680.72;;;2.46;86.54
20628;BME280;10473;42.734;24.258;2024-02-21T03:34:33;92680.59;;;2.66;86.16
20628;BME280;10473;42.734;24.258;2024-02-21T03:36:59;92681.09;;;2.52;86.55
20628;BME280;10473;42.734;24.258;2024-02-21T03:39:25;92683.22;;;2.56;86.34
20628;BME280;10473;42.734;24.258;2024-02-21T03:41:50;92688.47;;;2.27;86.65
20628;BME280;10473;42.734;24.258;2024-02-21T03:44:16;92675.50;;;2.20;87.69
20628;BME280;10473;42.734;24.258;2024-02-21T03:46:42;92687.44;;;2.20;87.40
20628;BME280;10473;42.734;24.258;2024-02-21T03:49:07;92686.25;;;2.42;86.77
20628;BME280;10473;42.734;24.258;2024-02-21T03:51:33;92684.91;;;2.47;86.03
20628;BME280;10473;42.734;24.258;2024-02-21T03:53:58;92693.00;;;2.43;85.63
20628;BME280;10473;42.734;24.258;2024-02-21T03:56:24;92690.59;;;2.32;86.42
20628;BME280;10473;42.734;24.258;2024-02-21T03:58:50;92689.22;;;2.19;87.99
20628;BME280;10473;42.734;24.258;2024-02-21T04:01:16;92693.00;;;2.43;86.31
20628;BME280;10473;42.734;24.258;2024-02-21T04:03:42;92686.25;;;2.42;85.67
20628;BME280;10473;42.734;24.258;2024-02-21T04:06:08;92694.00;;;2.22;86.86
20628;BME280;10473;42.734;24.258;2024-02-21T04:08:34;92693.22;;;2.22;86.87
20628;BME280;10473;42.734;24.258;2024-02-21T04:10:59;92686.31;;;2.32;85.81
20628;BME280;10473;42.734;24.258;2024-02-21T04:13:25;92700.91;;;2.40;86.32
20628;BME280;10473;42.734;24.258;2024-02-21T04:15:51;92687.28;;;2.49;86.00
20628;BME280;10473;42.734;24.258;2024-02-21T04:18:16;92692.47;;;2.39;86.50
20628;BME280;10473;42.734;24.258;2024-02-21T04:20:42;92699.63;;;2.54;86.44
20628;BME280;10473;42.734;24.258;2024-02-21T04:23:07;92702.72;;;2.75;85.25
20628;BME280;10473;42.734;24.258;2024-02-21T04:25:33;92693.56;;;2.55;86.11
20628;BME280;10473;42.734;24.258;2024-02-21T04:27:59;92691.06;;;2.45;86.10
20628;BME280;10473;42.734;24.258;2024-02-21T04:30:24;92705.97;;;2.22;87.36
20628;BME280;10473;42.734;24.258;2024-02-21T04:32:50;92706.72;;;2.04;88.53
20628;BME280;10473;42.734;24.258;2024-02-21T04:35:16;92718.22;;;2.18;87.69
20628;BME280;10473;42.734;24.258;2024-02-21T04:37:42;92715.00;;;2.16;87.47
20628;BME280;10473;42.734;24.258;2024-02-21T04:40:07;92725.81;;;2.00;88.92
20628;BME280;10473;42.734;24.258;2024-02-21T04:42:34;92724.84;;;2.01;88.64
20628;BME280;10473;42.734;24.258;2024-02-21T04:45:00;92707.09;;;2.10;88.18
20628;BME280;10473;42.734;24.258;2024-02-21T04:47:26;92716.63;;;2.17;87.38
20628;BME280;10473;42.734;24.258;2024-02-21T04:49:52;92722.22;;;2.21;88.29
20628;BME280;10473;42.734;24.258;2024-02-21T04:52:17;92722.53;;;2.08;88.54
20628;BME280;10473;42.734;24.258;2024-02-21T04:54:43;92719.19;;;2.08;88.23
20628;BME280;10473;42.734;24.258;2024-02-21T04:57:09;92723.66;;;2.33;87.50
20628;BME280;10473;42.734;24.258;2024-02-21T04:59:36;92733.53;;;2.18;87.87
20628;BME280;10473;42.734;24.258;2024-02-21T05:02:02;92718.63;;;2.23;87.68
20628;BME280;10473;42.734;24.258;2024-02-21T05:04:27;92717.13;;;2.49;86.31
20628;BME280;10473;42.734;24.258;2024-02-21T05:06:53;92712.91;;;2.57;85.75
20628;BME280;10473;42.734;24.258;2024-02-21T05:09:18;92719.13;;;2.73;84.89
20628;BME280;10473;42.734;24.258;2024-02-21T05:11:44;92719.09;;;2.82;84.27
20628;BME280;10473;42.734;24.258;2024-02-21T05:14:09;92722.13;;;2.86;84.65
20628;BME280;10473;42.734;24.258;2024-02-21T05:16:35;92719.75;;;2.84;85.15
20628;BME280;10473;42.734;24.258;2024-02-21T05:19:00;92720.31;;;2.96;84.02
20628;BME280;10473;42.734;24.258;2024-02-21T05:21:26;92719.22;;;2.99;84.44
20628;BME280;10473;42.734;24.258;2024-02-21T05:23:53;92720.28;;;3.06;84.27
20628;BME280;10473;42.734;24.258;2024-02-21T05:26:23;92715.25;;;2.68;84.45
20628;BME280;10473;42.734;24.258;2024-02-21T05:28:49;92723.34;;;2.46;85.47
20628;BME280;10473;42.734;24.258;2024-02-21T05:31:18;92720.69;;;2.38;86.42
20628;BME280;10473;42.734;24.258;2024-02-21T05:33:44;92721.81;;;2.53;86.63
20628;BME280;10473;42.734;24.258;2024-02-21T05:36:10;92717.88;;;2.59;85.61
20628;BME280;10473;42.734;24.258;2024-02-21T05:38:36;92726.56;;;2.66;85.43
20628;BME280;10473;42.734;24.258;2024-02-21T05:41:03;92729.34;;;2.55;86.44
20628;BME280;10473;42.734;24.258;2024-02-21T05:43:28;92725.66;;;2.39;86.22
20628;BME280;10473;42.734;24.258;2024-02-21T05:45:54;92738.31;;;2.31;86.62
20628;BME280;10473;42.734;24.258;2024-02-21T05:48:22;92738.41;;;2.39;87.43
20628;BME280;10473;42.734;24.258;2024-02-21T05:50:50;92738.97;;;2.33;87.10
20628;BME280;10473;42.734;24.258;2024-02-21T05:53:16;92737.84;;;2.18;87.71
20628;BME280;10473;42.734;24.258;2024-02-21T05:55:42;92746.06;;;2.12;87.95
20628;BME280;10473;42.734;24.258;2024-02-21T05:58:07;92750.31;;;2.21;87.31
20628;BME280;10473;42.734;24.258;2024-02-21T06:00:35;92748.59;;;2.21;86.97
20628;BME280;10473;42.734;24.258;2024-02-21T06:03:01;92748.63;;;2.39;86.74
20628;BME280;10473;42.734;24.258;2024-02-21T06:05:27;92744.66;;;2.55;85.24
20628;BME280;10473;42.734;24.258;2024-02-21T06:07:56;92737.78;;;2.55;85.28
20628;BME280;10473;42.734;24.258;2024-02-21T06:10:21;92745.97;;;2.59;85.49
20628;BME280;10473;42.734;24.258;2024-02-21T06:12:47;92741.66;;;2.59;85.45
20628;BME280;10473;42.734;24.258;2024-02-21T06:15:12;92749.13;;;2.15;87.79
20628;BME280;10473;42.734;24.258;2024-02-21T06:17:38;92758.28;;;2.08;88.09
20628;BME280;10473;42.734;24.258;2024-02-21T06:20:03;92762.66;;;2.25;87.81
20628;BME280;10473;42.734;24.258;2024-02-21T06:22:30;92765.97;;;1.98;88.39
20628;BME280;10473;42.734;24.258;2024-02-21T06:24:56;92765.97;;;1.98;89.65
20628;BME280;10473;42.734;24.258;2024-02-21T06:27:21;92768.16;;;1.93;88.79
20628;BME280;10473;42.734;24.258;2024-02-21T06:29:47;92770.97;;;1.90;89.00
20628;BME280;10473;42.734;24.258;2024-02-21T06:32:34;92772.00;;;1.97;88.76
20628;BME280;10473;42.734;24.258;2024-02-21T06:35:00;92778.06;;;2.06;88.57
20628;BME280;10473;42.734;24.258;2024-02-21T06:37:27;92780.44;;;2.08;88.38
20628;BME280;10473;42.734;24.258;2024-02-21T06:39:52;92777.97;;;2.25;87.35
20628;BME280;10473;42.734;24.258;2024-02-21T06:42:18;92788.66;;;2.11;87.75
20628;BME280;10473;42.734;24.258;2024-02-21T06:44:44;92791.06;;;2.13;87.97
20628;BME280;10473;42.734;24.258;2024-02-21T06:47:10;92788.22;;;2.16;88.17
20628;BME280;10473;42.734;24.258;2024-02-21T06:49:35;92789.13;;;2.34;86.87
20628;BME280;10473;42.734;24.258;2024-02-21T06:52:04;92790.88;;;2.24;87.52
20628;BME280;10473;42.734;24.258;2024-02-21T06:54:30;92783.00;;;2.08;88.01
20628;BME280;10473;42.734;24.258;2024-02-21T06:56:56;92790.84;;;2.34;87.09
20628;BME280;10473;42.734;24.258;2024-02-21T06:59:21;92799.41;;;2.42;85.83
20628;BME280;10473;42.734;24.258;2024-02-21T07:01:48;92802.03;;;2.60;85.13
20628;BME280;10473;42.734;24.258;2024-02-21T07:04:14;92784.63;;;2.46;85.38
20628;BME280;10473;42.734;24.258;2024-02-21T07:06:40;92795.94;;;2.43;85.81
20628;BME280;10473;42.734;24.258;2024-02-21T07:09:05;92791.81;;;2.60;84.72
20628;BME280;10473;42.734;24.258;2024-02-21T07:11:31;92795.97;;;2.89;83.50
20628;BME280;10473;42.734;24.258;2024-02-21T07:13:56;92789.31;;;2.78;82.77
20628;BME280;10473;42.734;24.258;2024-02-21T07:16:22;92798.97;;;2.57;83.88
20628;BME280;10473;42.734;24.258;2024-02-21T07:18:48;92798.97;;;2.84;82.90
20628;BME280;10473;42.734;24.258;2024-02-21T07:21:13;92800.28;;;2.88;83.55
20628;BME280;10473;42.734;24.258;2024-02-21T07:23:43;92807.53;;;2.65;84.06
20628;BME280;10473;42.734;24.258;2024-02-21T07:26:09;92802.13;;;2.68;85.01
20628;BME280;10473;42.734;24.258;2024-02-21T07:28:34;92802.78;;;2.71;84.83
20628;BME280;10473;42.734;24.258;2024-02-21T07:31:00;92804.38;;;2.44;85.83
20628;BME280;10473;42.734;24.258;2024-02-21T07:33:25;92812.03;;;2.44;85.71
20628;BME280;10473;42.734;24.258;2024-02-21T07:35:51;92802.03;;;2.60;85.34
20628;BME280;10473;42.734;24.258;2024-02-21T07:38:16;92800.56;;;2.58;85.06
20628;BME280;10473;42.734;24.258;2024-02-21T07:40:46;92793.88;;;2.75;84.41
20628;BME280;10473;42.734;24.258;2024-02-21T07:43:11;92801.09;;;3.07;82.56
20628;BME280;10473;42.734;24.258;2024-02-21T07:45:37;92797.41;;;3.19;81.83
20628;BME280;10473;42.734;24.258;2024-02-21T07:48:05;92799.13;;;3.01;82.12
20628;BME280;10473;42.734;24.258;2024-02-21T07:50:30;92802.75;;;3.26;81.37
20628;BME280;10473;42.734;24.258;2024-02-21T07:52:56;92792.22;;;2.83;81.63
20628;BME280;10473;42.734;24.258;2024-02-21T07:55:22;92794.97;;;3.00;82.89
20628;BME280;10473;42.734;24.258;2024-02-21T07:57:47;92800.78;;;2.92;83.48
20628;BME280;10473;42.734;24.258;2024-02-21T08:00:13;92803.09;;;3.13;82.33
20628;BME280;10473;42.734;24.258;2024-02-21T08:02:48;92795.78;;;2.73;84.16
20628;BME280;10473;42.734;24.258;2024-02-21T08:05:14;92789.06;;;2.72;83.94
20628;BME280;10473;42.734;24.258;2024-02-21T08:07:40;92801.34;;;2.86;83.16
20628;BME280;10473;42.734;24.258;2024-02-21T08:10:06;92800.84;;;2.82;82.60
20628;BME280;10473;42.734;24.258;2024-02-21T08:12:34;92804.22;;;3.01;82.43
20628;BME280;10473;42.734;24.258;2024-02-21T08:15:01;92796.44;;;3.02;82.59
20628;BME280;10473;42.734;24.258;2024-02-21T08:17:26;92805.63;;;2.67;83.40
20628;BME280;10473;42.734;24.258;2024-02-21T08:19:52;92806.00;;;2.73;84.33
20628;BME280;10473;42.734;24.258;2024-02-21T08:22:17;92800.84;;;2.82;84.07
20628;BME280;10473;42.734;24.258;2024-02-21T08:24:43;92802.63;;;3.00;83.18
20628;BME280;10473;42.734;24.258;2024-02-21T08:27:08;92802.06;;;3.06;82.25
20628;BME280;10473;42.734;24.258;2024-02-21T08:29:34;92803.75;;;2.97;81.82
20628;BME280;10473;42.734;24.258;2024-02-21T08:31:59;92807.97;;;3.06;82.32
20628;BME280;10473;42.734;24.258;2024-02-21T08:34:25;92809.19;;;3.30;81.52
20628;BME280;10473;42.734;24.258;2024-02-21T08:36:51;92806.97;;;3.35;82.16
20628;BME280;10473;42.734;24.258;2024-02-21T08:39:16;92809.31;;;3.28;81.88
20628;BME280;10473;42.734;24.258;2024-02-21T08:41:42;92813.19;;;3.33;81.01
20628;BME280;10473;42.734;24.258;2024-02-21T08:44:08;92808.22;;;3.49;80.61
20628;BME280;10473;42.734;24.258;2024-02-21T08:46:33;92806.41;;;3.41;80.02
20628;BME280;10473;42.734;24.258;2024-02-21T08:48:59;92814.00;;;3.33;80.25
20628;BME280;10473;42.734;24.258;2024-02-21T08:51:24;92815.31;;;3.55;80.40
20628;BME280;10473;42.734;24.258;2024-02-21T08:53:50;92816.09;;;3.74;80.47
20628;BME280;10473;42.734;24.258;2024-02-21T08:56:17;92816.53;;;3.87;78.47
20628;BME280;10473;42.734;24.258;2024-02-21T08:58:43;92805.69;;;3.93;79.03
20628;BME280;10473;42.734;24.258;2024-02-21T09:01:08;92819.75;;;4.15;78.88
20628;BME280;10473;42.734;24.258;2024-02-21T09:03:38;92816.84;;;3.66;78.91
20628;BME280;10473;42.734;24.258;2024-02-21T09:06:07;92821.94;;;3.84;78.80
20628;BME280;10473;42.734;24.258;2024-02-21T09:08:33;92820.94;;;4.03;78.09
20628;BME280;10473;42.734;24.258;2024-02-21T09:11:02;92819.94;;;3.96;76.52
20628;BME280;10473;42.734;24.258;2024-02-21T09:13:27;92829.09;;;3.98;77.31
20628;BME280;10473;42.734;24.258;2024-02-21T09:15:53;92819.34;;;4.02;77.32
20628;BME280;10473;42.734;24.258;2024-02-21T09:18:19;92818.41;;;4.03;76.43
20628;BME280;10473;42.734;24.258;2024-02-21T09:20:45;92816.28;;;3.98;76.33
20628;BME280;10473;42.734;24.258;2024-02-21T09:23:11;92807.03;;;4.23;75.37
20628;BME280;10473;42.734;24.258;2024-02-21T09:25:37;92812.16;;;4.58;74.36
20628;BME280;10473;42.734;24.258;2024-02-21T09:28:03;92812.50;;;4.97;73.53
20628;BME280;10473;42.734;24.258;2024-02-21T09:30:29;92815.31;;;5.37;71.82
20628;BME280;10473;42.734;24.258;2024-02-21T09:32:55;92804.75;;;5.56;71.04
20628;BME280;10473;42.734;24.258;2024-02-21T09:35:24;92809.31;;;5.11;70.69
20628;BME280;10473;42.734;24.258;2024-02-21T09:37:52;92810.41;;;5.92;69.69
20628;BME280;10473;42.734;24.258;2024-02-21T09:40:23;92810.72;;;6.86;68.91
20628;BME280;10473;42.734;24.258;2024-02-21T09:42:57;92805.84;;;6.99;66.72
20628;BME280;10473;42.734;24.258;2024-02-21T09:45:29;92796.75;;;7.20;65.92
20628;BME280;10473;42.734;24.258;2024-02-21T09:50:38;92802.28;;;7.40;64.57
20628;BME280;10473;42.734;24.258;2024-02-21T09:53:06;92792.34;;;7.98;62.95
20628;BME280;10473;42.734;24.258;2024-02-21T09:55:35;92792.09;;;8.46;61.51
20628;BME280;10473;42.734;24.258;2024-02-21T09:58:04;92795.00;;;8.28;60.20
20628;BME280;10473;42.734;24.258;2024-02-21T10:00:30;92791.22;;;7.54;63.00
20628;BME280;10473;42.734;24.258;2024-02-21T10:02:55;92785.56;;;7.82;60.40
20628;BME280;10473;42.734;24.258;2024-02-21T10:05:21;92786.22;;;8.22;61.29
20628;BME280;10473;42.734;24.258;2024-02-21T10:07:48;92773.94;;;8.24;61.44
20628;BME280;10473;42.734;24.258;2024-02-21T10:10:15;92780.03;;;8.76;58.31
20628;BME280;10473;42.734;24.258;2024-02-21T10:12:49;92772.00;;;9.00;60.08
20628;BME280;10473;42.734;24.258;2024-02-21T10:15:20;92769.97;;;7.98;60.11
20628;BME280;10473;42.734;24.258;2024-02-21T10:17:46;92769.53;;;7.72;61.45
20628;BME280;10473;42.734;24.258;2024-02-21T10:20:12;92765.63;;;7.76;59.95
20628;BME280;10473;42.734;24.258;2024-02-21T10:22:42;92760.69;;;7.51;62.69
20628;BME280;10473;42.734;24.258;2024-02-21T10:25:14;92758.91;;;7.75;60.14
20628;BME280;10473;42.734;24.258;2024-02-21T10:27:40;92733.78;;;7.08;62.88
20628;BME280;10473;42.734;24.258;2024-02-21T10:30:13;92742.00;;;7.26;62.17
20628;BME280;10473;42.734;24.258;2024-02-21T10:32:54;92738.59;;;7.57;59.35
20628;BME280;10473;42.734;24.258;2024-02-21T10:35:30;92734.66;;;7.23;61.86
20628;BME280;10473;42.734;24.258;2024-02-21T10:37:59;92736.22;;;7.01;61.82
20628;BME280;10473;42.734;24.258;2024-02-21T10:40:29;92723.28;;;7.40;62.47
20628;BME280;10473;42.734;24.258;2024-02-21T10:43:00;92713.75;;;6.95;63.79
20628;BME280;10473;42.734;24.258;2024-02-21T10:45:34;92713.72;;;7.49;61.38
20628;BME280;10473;42.734;24.258;2024-02-21T10:48:08;92713.97;;;7.54;61.48
20628;BME280;10473;42.734;24.258;2024-02-21T10:51:24;92709.41;;;7.41;61.19
20628;BME280;10473;42.734;24.258;2024-02-21T10:56:26;92710.72;;;6.52;63.35
20628;BME280;10473;42.734;24.258;2024-02-21T10:58:53;92704.56;;;7.01;62.91
20628;BME280;10473;42.734;24.258;2024-02-21T11:01:20;92703.50;;;7.18;62.82
20628;BME280;10473;42.734;24.258;2024-02-21T11:03:48;92698.03;;;7.13;62.54
20628;BME280;10473;42.734;24.258;2024-02-21T11:06:15;92702.56;;;7.34;61.88
20628;BME280;10473;42.734;24.258;2024-02-21T11:08:43;92696.94;;;7.53;61.11
20628;BME280;10473;42.734;24.258;2024-02-21T11:11:12;92686.09;;;7.81;58.40
20628;BME280;10473;42.734;24.258;2024-02-21T11:13:42;92689.47;;;7.81;56.63
20628;BME280;10473;42.734;24.258;2024-02-21T11:16:09;92689.06;;;8.08;58.00
20628;BME280;10473;42.734;24.258;2024-02-21T11:18:38;92689.69;;;7.57;58.64
20628;BME280;10473;42.734;24.258;2024-02-21T11:21:04;92684.75;;;7.70;59.49
20628;BME280;10473;42.734;24.258;2024-02-21T11:23:31;92686.91;;;7.96;58.32
20628;BME280;10473;42.734;24.258;2024-02-21T11:28:32;92684.16;;;7.83;57.54
20628;BME280;10473;42.734;24.258;2024-02-21T11:31:08;92683.72;;;7.94;54.50
20628;BME280;10473;42.734;24.258;2024-02-21T11:33:34;92683.38;;;7.59;54.73
20628;BME280;10473;42.734;24.258;2024-02-21T11:36:01;92674.97;;;7.66;54.45
20628;BME280;10473;42.734;24.258;2024-02-21T11:38:26;92677.94;;;8.07;51.31
20628;BME280;10473;42.734;24.258;2024-02-21T11:40:52;92677.72;;;7.64;56.13
20628;BME280;10473;42.734;24.258;2024-02-21T11:43:17;92671.41;;;7.67;55.30
20628;BME280;10473;42.734;24.258;2024-02-21T11:45:43;92673.31;;;7.50;57.50
20628;BME280;10473;42.734;24.258;2024-02-21T11:48:08;92672.50;;;7.11;55.92
20628;BME280;10473;42.734;24.258;2024-02-21T11:50:35;92659.81;;;6.78;53.46
20628;BME280;10473;42.734;24.258;2024-02-21T11:53:01;92662.31;;;7.18;54.32
20628;BME280;10473;42.734;24.258;2024-02-21T11:55:28;92651.22;;;7.17;52.74
20628;BME280;10473;42.734;24.258;2024-02-21T11:57:53;92648.09;;;7.22;52.83
20628;BME280;10473;42.734;24.258;2024-02-21T12:00:19;92642.97;;;7.22;52.49
20628;BME280;10473;42.734;24.258;2024-02-21T12:02:50;92643.22;;;7.35;50.09
20628;BME280;10473;42.734;24.258;2024-02-21T12:05:16;92637.44;;;7.33;50.68
20628;BME280;10473;42.734;24.258;2024-02-21T12:07:43;92644.00;;;7.36;50.98
20628;BME280;10473;42.734;24.258;2024-02-21T12:10:10;92639.66;;;7.36;50.68
20628;BME280;10473;42.734;24.258;2024-02-21T12:12:37;92638.81;;;7.59;51.40
20628;BME280;10473;42.734;24.258;2024-02-21T12:15:06;92630.72;;;7.47;52.29
20628;BME280;10473;42.734;24.258;2024-02-21T12:17:33;92630.97;;;7.14;51.94
20628;BME280;10473;42.734;24.258;2024-02-21T12:19:59;92620.91;;;7.05;53.91
20628;BME280;10473;42.734;24.258;2024-02-21T12:22:25;92630.00;;;7.53;52.82
20628;BME280;10473;42.734;24.258;2024-02-21T12:24:51;92636.06;;;7.75;52.90
20628;BME280;10473;42.734;24.258;2024-02-21T12:27:17;92621.81;;;8.02;53.86
20628;BME280;10473;42.734;24.258;2024-02-21T12:29:42;92619.94;;;7.96;53.40
20628;BME280;10473;42.734;24.258;2024-02-21T12:32:08;92630.03;;;7.68;53.70
20628;BME280;10473;42.734;24.258;2024-02-21T12:34:33;92621.00;;;7.87;54.07
20628;BME280;10473;42.734;24.258;2024-02-21T12:36:59;92624.69;;;7.55;53.46
20628;BME280;10473;42.734;24.258;2024-02-21T12:39:25;92617.81;;;7.32;53.25
20628;BME280;10473;42.734;24.258;2024-02-21T12:41:54;92618.44;;;7.34;54.63
20628;BME280;10473;42.734;24.258;2024-02-21T12:44:21;92611.78;;;7.02;54.51
20628;BME280;10473;42.734;24.258;2024-02-21T12:46:46;92621.16;;;7.18;54.33
20628;BME280;10473;42.734;24.258;2024-02-21T12:49:17;92614.34;;;7.02;54.39
20628;BME280;10473;42.734;24.258;2024-02-21T12:51:43;92617.31;;;7.14;55.11
20628;BME280;10473;42.734;24.258;2024-02-21T12:54:09;92620.91;;;7.28;52.87
20628;BME280;10473;42.734;24.258;2024-02-21T12:56:36;92610.69;;;6.96;53.43
20628;BME280;10473;42.734;24.258;2024-02-21T12:59:02;92606.66;;;7.17;54.00
20628;BME280;10473;42.734;24.258;2024-02-21T13:01:28;92596.25;;;7.33;53.45
20628;BME280;10473;42.734;24.258;2024-02-21T13:03:53;92603.09;;;7.41;52.41
20628;BME280;10473;42.734;24.258;2024-02-21T13:06:19;92597.63;;;7.21;52.42
20628;BME280;10473;42.734;24.258;2024-02-21T13:08:45;92594.50;;;7.49;52.25